This is the latest recevied weather packets stored in our database for station/object DJ4RO-13. If no packets are shown the sender has not sent any weather packets the latest 10 day(s).
| Time | Temp. | Humidity | Pressure | Rain* | Wind** | Luminosity | Snow |
|---|---|---|---|---|---|---|---|
| 1776950894 | 15° C | 60% | 1027.4 hPa | 0 mm | - | 413 W/m² | - |
| 1776950574 | 14.44° C | 62% | 1027.5 hPa | 0 mm | - | 435 W/m² | - |
| 1776950252 | 14.44° C | 60% | 1027.4 hPa | 0 mm | - | 433 W/m² | - |
| 1776949934 | 14.44° C | 59% | 1027.6 hPa | 0 mm | - | 449 W/m² | - |
| 1776949614 | 13.89° C | 61% | 1027.8 hPa | 0 mm | - | 453 W/m² | - |
| 1776949292 | 14.44° C | 61% | 1027.9 hPa | 0 mm | - | 472 W/m² | - |
| 1776948932 | 13.89° C | 61% | 1027.9 hPa | 0 mm | - | 459 W/m² | - |
| 1776948572 | 13.33° C | 62% | 1027.9 hPa | 0 mm | - | 465 W/m² | - |
| 1776948270 | 13.33° C | 63% | 1028.1 hPa | 0 mm | - | 486 W/m² | - |
| 1776947950 | 14.44° C | 62% | 1028.1 hPa | 0 mm | - | 488 W/m² | - |
| 1776947630 | 13.33° C | 64% | 1028.1 hPa | 0 mm | - | 508 W/m² | - |
| 1776947310 | 13.33° C | 64% | 1028.2 hPa | 0 mm | - | 503 W/m² | - |
| 1776946990 | 13.33° C | 64% | 1028 hPa | 0 mm | - | 514 W/m² | - |
| 1776946670 | 12.22° C | 66% | 1028.2 hPa | 0 mm | - | 517 W/m² | - |
| 1776946352 | 12.22° C | 67% | 1028.2 hPa | 0 mm | - | 523 W/m² | - |
| 1776946052 | 12.22° C | 66% | 1028.7 hPa | 0 mm | - | 532 W/m² | - |
| 1776945742 | 12.78° C | 66% | 1028.3 hPa | 0 mm | - | 528 W/m² | - |
| 1776945422 | 12.22° C | 67% | 1028.5 hPa | 0 mm | - | 533 W/m² | - |
| 1776945103 | 12.22° C | 65% | 1028.4 hPa | 0 mm | - | 536 W/m² | - |
| 1776944782 | 11.67° C | 68% | 1028.6 hPa | 0 mm | - | 546 W/m² | - |
| 1776944446 | 11.67° C | 67% | 1028.1 hPa | 0 mm | - | 547 W/m² | - |
| 1776944126 | 11.11° C | 68% | 1028.5 hPa | 0 mm | - | 554 W/m² | - |
| 1776943806 | 11.67° C | 67% | 1028.3 hPa | 0 mm | - | 559 W/m² | - |
| 1776943486 | 10.56° C | 71% | 1028.4 hPa | 0 mm | - | 561 W/m² | - |
| 1776943166 | 11.11° C | 70% | 1028.3 hPa | 0 mm | - | 560 W/m² | - |
* Rain latest hour (hover to see other rain measurements)
** Current wind speed in m/s (hover to see current wind gust speed)